Airfield :
LOGIN :

Register | Disclaimer

   EN    FR    IT 

 










Legend :    VFR   Marginal VFR   IFR   Intensive IFR   Very Intensive IFR
Visi :
Ceiling :
>= 8 km
>= 3000ft
5 to 8 km
1000 to 3000 ft
1500m to 5 km
500 to 1000 ft
800 to 1500m
200 to 500 ft
< 800m
< 200 ft
Symbols :   Thunderstorms  Fog  Heavy snow  Heavy precipitations  Wind > 20 kt
SIGMETs :     Misc.  Thunderstorms  Icing  Turbulence  Mountain Waves  Volcanic Ashes






- Airport Elevation : 505 ft
- IATA code : SXB


LFST - Strasbourg

CURRENT METAR :
  • 141100Z AUTO 03011KT 9999 SCT052 10/M03 Q1028 TEMPO FEW045TCU

EXPIRED METARs :
  • 141030Z AUTO 05009KT 010V080 9999 SCT047 SCT054 11/M01 Q1028 TEMPO FEW045TCU
  • 141000Z AUTO 01010KT 320V040 9999 FEW044 09/M01 Q1028 NOSIG
  • 140930Z AUTO 05009KT 9999 FEW037 09/M01 Q1028 NOSIG
  • 140900Z AUTO 02009KT 350V050 CAVOK 09/M00 Q1029 NOSIG

TAF TAF LFST
Valid from the 14 at 12:00 until the 15 at 12:00 UTC


141100Z 1412/1512 03012KT CAVOK
PROB40
TEMPO 1412/1415 -SHRA FEW050TCU
PROB30
TEMPO 1504/1506 BKN008
PROB40
TEMPO 1510/1512 -SHRA FEW050TCU



MET'MAP, your aeronautical weather chart ! - Copyright ORBIFLY December 2007 - Disclaimer

ORBIFLY MET'MAP TEAM :

Programming & Development : Alexandra Zaïnal
Concept & original design : Baudouin d'Aumeries
Assistance for programming : Marc-Olivier Méhu
Technical & hardware support : Manuel Goepfert

Contact : metmap@orbifly.com




SOURCES & CREDITS :

   NOAA